Time;durP1;ratioP1;P1;durP2;ratioP2;P2;SDS_P1;SDS_P2;PMS_P1;PMS_P2;Temp;Humidity;BMP_temperature;BMP_pressure;BME280_temperature;BME280_humidity;BME280_pressure;Samples;Min_cycle;Max_cycle;Signal;HPM_P1;HPM_P2
2022/10/23 00:01:10;;;;;;;39.22;17.65;;;;;;;;;;5073804;28;20021;-73
2022/10/23 00:03:36;;;;;;;40.00;17.42;;;;;;;;;;5073711;28;20099;-73
2022/10/23 00:06:04;;;;;;;32.75;17.42;;;;;;;;;;5072771;28;20107;-73
2022/10/23 00:08:30;;;;;;;35.55;18.25;;;;;;;;;;5072907;28;20120;-74
2022/10/23 00:10:56;;;;;;;43.25;17.65;;;;;;;;;;5072407;28;20438;-74
2022/10/23 00:13:22;;;;;;;30.58;16.67;;;;;;;;;;5072800;28;20016;-74
2022/10/23 00:15:47;;;;;;;41.28;20.30;;;;;;;;;;5072379;28;20024;-73
2022/10/23 00:18:13;;;;;;;34.17;18.90;;;;;;;;;;5072507;28;20025;-74
2022/10/23 00:20:39;;;;;;;39.45;19.65;;;;;;;;;;5072471;28;20025;-75
2022/10/23 00:23:05;;;;;;;42.88;19.55;;;;;;;;;;5072436;28;20070;-75
2022/10/23 00:25:32;;;;;;;34.10;18.98;;;;;;;;;;5072114;28;20428;-73
2022/10/23 00:27:58;;;;;;;37.25;20.25;;;;;;;;;;5072507;28;20028;-74
2022/10/23 00:30:24;;;;;;;36.55;19.02;;;;;;;;;;5072770;28;20073;-73
2022/10/23 00:32:50;;;;;;;40.30;19.83;;;;;;;;;;5072776;28;20032;-74
2022/10/23 00:35:16;;;;;;;41.83;20.08;;;;;;;;;;5073507;28;20491;-74
2022/10/23 00:37:42;;;;;;;31.42;18.40;;;;;;;;;;5073321;28;20381;-73
2022/10/23 00:40:08;;;;;;;51.25;21.90;;;;;;;;;;5074081;28;20116;-74
2022/10/23 00:42:34;;;;;;;47.40;21.80;;;;;;;;;;5072844;28;20020;-74
2022/10/23 00:45:08;;;;;;;47.90;22.17;;;;;;;;;;5073240;28;20032;-75
2022/10/23 00:47:34;;;;;;;46.85;23.42;;;;;;;;;;5073830;28;20031;-74
2022/10/23 00:50:00;;;;;;;44.75;22.35;;;;;;;;;;5073882;28;20119;-74
2022/10/23 00:52:27;;;;;;;41.08;23.10;;;;;;;;;;5073380;28;20029;-74
2022/10/23 00:54:53;;;;;;;47.33;24.60;;;;;;;;;;5073231;28;20032;-75
2022/10/23 00:57:19;;;;;;;56.10;24.90;;;;;;;;;;5073395;28;20366;-76
2022/10/23 00:59:45;;;;;;;45.50;24.40;;;;;;;;;;5073081;28;20028;-75
2022/10/23 01:02:11;;;;;;;40.78;22.23;;;;;;;;;;5072922;28;20024;-74
2022/10/23 01:04:37;;;;;;;43.80;22.88;;;;;;;;;;5073678;28;20032;-75
2022/10/23 01:07:19;;;;;;;44.88;22.95;;;;;;;;;;5072444;28;20568;-75
2022/10/23 01:10:15;;;;;;;45.70;23.85;;;;;;;;;;5086694;22;20043;-74
2022/10/23 01:12:50;;;;;;;42.63;22.10;;;;;;;;;;5018814;28;20050;-74
2022/10/23 01:15:19;;;;;;;43.78;22.60;;;;;;;;;;5060141;28;20020;-74
2022/10/23 01:17:50;;;;;;;47.47;22.85;;;;;;;;;;5074419;28;20041;-72
2022/10/23 01:20:35;;;;;;;48.75;21.95;;;;;;;;;;5077291;28;20039;-73
2022/10/23 01:23:20;;;;;;;56.05;22.77;;;;;;;;;;5056664;28;20486;-74
2022/10/23 01:25:55;;;;;;;43.08;21.48;;;;;;;;;;5074247;28;20025;-74
2022/10/23 01:28:33;;;;;;;49.10;22.15;;;;;;;;;;5064470;28;20147;-73
2022/10/23 01:31:01;;;;;;;38.00;22.27;;;;;;;;;;5053068;28;20029;-75
2022/10/23 01:33:32;;;;;;;43.20;20.95;;;;;;;;;;5053459;28;20029;-74
2022/10/23 01:36:03;;;;;;;37.70;21.05;;;;;;;;;;5052777;28;20041;-74
2022/10/23 01:38:32;;;;;;;41.92;21.60;;;;;;;;;;5053295;28;20057;-73
2022/10/23 01:41:01;;;;;;;42.30;21.38;;;;;;;;;;5035267;28;20021;-74
2022/10/23 01:43:47;;;;;;;41.08;21.00;;;;;;;;;;5053383;28;20024;-74
2022/10/23 01:46:16;;;;;;;41.17;21.50;;;;;;;;;;5054534;28;20071;-74
2022/10/23 01:48:44;;;;;;;38.80;21.60;;;;;;;;;;5057457;28;20079;-74
2022/10/23 01:51:11;;;;;;;38.15;20.58;;;;;;;;;;5057201;28;20051;-74
2022/10/23 01:53:40;;;;;;;43.28;21.75;;;;;;;;;;5056812;28;20044;-73
2022/10/23 01:56:08;;;;;;;42.08;21.55;;;;;;;;;;5056639;28;20029;-73
2022/10/23 01:58:34;;;;;;;41.08;20.48;;;;;;;;;;5056617;28;20037;-73
2022/10/23 02:01:02;;;;;;;38.00;20.63;;;;;;;;;;5056257;28;20071;-73
2022/10/23 02:03:30;;;;;;;36.92;20.45;;;;;;;;;;5056755;28;20025;-73
2022/10/23 02:05:56;;;;;;;38.70;20.55;;;;;;;;;;5056479;28;20025;-74
2022/10/23 02:08:24;;;;;;;36.75;19.02;;;;;;;;;;5056120;28;20206;-75
2022/10/23 02:10:56;;;;;;;31.95;18.45;;;;;;;;;;5056079;28;20063;-73
2022/10/23 02:13:32;;;;;;;42.30;20.45;;;;;;;;;;5057563;28;20029;-73
2022/10/23 02:16:14;;;;;;;39.88;19.77;;;;;;;;;;5057821;28;20025;-74
2022/10/23 02:18:43;;;;;;;39.70;19.42;;;;;;;;;;5056674;28;20033;-73
2022/10/23 02:21:10;;;;;;;30.65;18.67;;;;;;;;;;5056826;28;20021;-73
2022/10/23 02:23:49;;;;;;;31.52;19.55;;;;;;;;;;5038607;28;20052;-74
2022/10/23 02:26:17;;;;;;;44.22;20.13;;;;;;;;;;5042218;28;20032;-73
2022/10/23 02:28:48;;;;;;;38.50;19.25;;;;;;;;;;5062032;28;20108;-74
2022/10/23 02:31:15;;;;;;;39.05;19.30;;;;;;;;;;5061606;28;20025;-73
2022/10/23 02:33:42;;;;;;;30.33;18.30;;;;;;;;;;5060696;28;20053;-74
2022/10/23 02:36:08;;;;;;;36.58;19.30;;;;;;;;;;5055504;28;20037;-74
2022/10/23 02:38:36;;;;;;;33.85;19.48;;;;;;;;;;5038290;28;20044;-74
2022/10/23 02:41:11;;;;;;;39.47;20.83;;;;;;;;;;5055854;28;20017;-74
2022/10/23 02:43:40;;;;;;;36.45;19.70;;;;;;;;;;5055915;28;20523;-73
2022/10/23 02:46:24;;;;;;;30.67;19.05;;;;;;;;;;5055532;28;20025;-75
2022/10/23 02:48:54;;;;;;;32.15;19.08;;;;;;;;;;5055759;28;20029;-73
2022/10/23 02:51:24;;;;;;;37.35;19.15;;;;;;;;;;5055720;28;20032;-72
2022/10/23 02:53:59;;;;;;;34.17;19.90;;;;;;;;;;5055991;28;20108;-72
2022/10/23 02:56:36;;;;;;;37.30;19.88;;;;;;;;;;5055613;28;20033;-73
2022/10/23 02:59:07;;;;;;;40.70;19.58;;;;;;;;;;5055043;28;20051;-72
2022/10/23 03:01:37;;;;;;;35.70;19.85;;;;;;;;;;5064156;28;20025;-73
2022/10/23 03:04:05;;;;;;;36.95;19.10;;;;;;;;;;5058692;28;20369;-73
2022/10/23 03:06:32;;;;;;;39.35;20.27;;;;;;;;;;5070154;28;20043;-74
2022/10/23 03:08:59;;;;;;;42.72;19.50;;;;;;;;;;5055423;28;20067;-73
2022/10/23 03:11:25;;;;;;;33.63;18.35;;;;;;;;;;5055227;28;20041;-74
2022/10/23 03:13:51;;;;;;;36.42;20.15;;;;;;;;;;5055215;28;20063;-72
2022/10/23 03:16:17;;;;;;;33.13;18.38;;;;;;;;;;5055120;28;20026;-74
2022/10/23 03:18:43;;;;;;;35.22;19.48;;;;;;;;;;5055292;28;20029;-74
2022/10/23 03:21:09;;;;;;;36.80;20.25;;;;;;;;;;5055740;28;20093;-74
2022/10/23 03:23:35;;;;;;;36.22;19.58;;;;;;;;;;5056559;28;20533;-74
2022/10/23 03:26:01;;;;;;;31.20;17.40;;;;;;;;;;5069788;28;20017;-74
2022/10/23 03:28:27;;;;;;;40.47;20.80;;;;;;;;;;5072271;28;20029;-74
2022/10/23 03:30:53;;;;;;;31.90;18.55;;;;;;;;;;5063724;28;20064;-75
2022/10/23 03:33:19;;;;;;;36.30;19.73;;;;;;;;;;5055364;28;20112;-75
2022/10/23 03:35:45;;;;;;;33.03;18.73;;;;;;;;;;5055241;28;20033;-74
2022/10/23 03:38:11;;;;;;;44.65;19.90;;;;;;;;;;5058817;28;20025;-73
2022/10/23 03:40:37;;;;;;;33.85;18.10;;;;;;;;;;5078410;28;20025;-73
2022/10/23 03:43:03;;;;;;;40.63;19.30;;;;;;;;;;5078551;28;20017;-72
2022/10/23 03:45:29;;;;;;;34.10;17.83;;;;;;;;;;5078608;28;20013;-72
2022/10/23 03:47:55;;;;;;;29.67;17.10;;;;;;;;;;5061758;28;20084;-72
2022/10/23 03:50:21;;;;;;;34.30;17.30;;;;;;;;;;5072083;28;20083;-74
2022/10/23 03:52:47;;;;;;;30.58;17.58;;;;;;;;;;5055431;28;20036;-75
2022/10/23 03:55:13;;;;;;;28.52;17.50;;;;;;;;;;5056155;28;20444;-74
2022/10/23 03:57:39;;;;;;;27.30;16.40;;;;;;;;;;5054562;28;20044;-75
2022/10/23 04:00:06;;;;;;;34.10;16.52;;;;;;;;;;5054655;28;20100;-74
2022/10/23 04:02:32;;;;;;;34.70;16.48;;;;;;;;;;5054114;28;20032;-75
2022/10/23 04:04:58;;;;;;;28.13;16.83;;;;;;;;;;5054339;28;20021;-74
2022/10/23 04:07:24;;;;;;;24.70;15.07;;;;;;;;;;5054204;28;20112;-75
2022/10/23 04:09:50;;;;;;;29.02;16.77;;;;;;;;;;5036225;28;20040;-74
2022/10/23 04:12:16;;;;;;;30.35;15.85;;;;;;;;;;5055176;28;20029;-74
2022/10/23 04:14:42;;;;;;;32.70;16.63;;;;;;;;;;5054407;28;20021;-74
2022/10/23 04:17:07;;;;;;;27.05;16.33;;;;;;;;;;5054046;28;20564;-73
2022/10/23 04:19:33;;;;;;;32.40;17.08;;;;;;;;;;5053933;28;20032;-74
2022/10/23 04:21:59;;;;;;;29.02;16.65;;;;;;;;;;5054171;28;20025;-73
2022/10/23 04:24:26;;;;;;;30.23;15.82;;;;;;;;;;5053640;28;20025;-74
2022/10/23 04:26:52;;;;;;;30.25;15.13;;;;;;;;;;5053618;28;20033;-74
2022/10/23 04:29:21;;;;;;;30.08;16.67;;;;;;;;;;5053972;28;20025;-76
2022/10/23 04:31:47;;;;;;;30.10;16.02;;;;;;;;;;5053528;28;20045;-74
2022/10/23 04:34:13;;;;;;;26.63;15.77;;;;;;;;;;5054000;28;20505;-74
2022/10/23 04:36:39;;;;;;;35.95;16.80;;;;;;;;;;5053371;28;20021;-74
2022/10/23 04:39:05;;;;;;;28.02;15.27;;;;;;;;;;5037093;28;20032;-74
2022/10/23 04:41:31;;;;;;;26.08;16.15;;;;;;;;;;5056266;28;20048;-74
2022/10/23 04:43:57;;;;;;;29.75;16.52;;;;;;;;;;5056074;28;20083;-74
2022/10/23 04:46:23;;;;;;;25.40;14.52;;;;;;;;;;5058488;28;20025;-73
2022/10/23 04:48:49;;;;;;;27.17;15.77;;;;;;;;;;5058580;28;20060;-73
2022/10/23 04:51:15;;;;;;;32.90;15.93;;;;;;;;;;5057049;28;20032;-74
2022/10/23 04:53:41;;;;;;;27.83;15.98;;;;;;;;;;5056977;28;20436;-74
2022/10/23 04:56:07;;;;;;;27.63;16.35;;;;;;;;;;5034950;28;20063;-74
2022/10/23 04:58:34;;;;;;;38.40;18.83;;;;;;;;;;5053156;28;20113;-74
2022/10/23 05:01:00;;;;;;;33.38;17.83;;;;;;;;;;5053537;28;20025;-72
2022/10/23 05:03:26;;;;;;;31.50;16.08;;;;;;;;;;5053382;28;20025;-73
2022/10/23 05:05:54;;;;;;;30.98;17.27;;;;;;;;;;5052827;28;20492;-75
2022/10/23 05:08:20;;;;;;;37.28;17.50;;;;;;;;;;5052858;28;20152;-74
2022/10/23 05:10:47;;;;;;;32.10;17.58;;;;;;;;;;5052660;28;20052;-73
2022/10/23 05:13:14;;;;;;;30.27;17.67;;;;;;;;;;5052844;28;20036;-74
2022/10/23 05:15:39;;;;;;;35.38;18.55;;;;;;;;;;5054454;28;20100;-73
2022/10/23 05:18:15;;;;;;;26.08;16.15;;;;;;;;;;5060569;28;20025;-73
2022/10/23 05:20:41;;;;;;;33.55;18.15;;;;;;;;;;5059150;28;20544;-74
2022/10/23 05:23:09;;;;;;;29.35;16.15;;;;;;;;;;5055667;28;20064;-74
2022/10/23 05:25:35;;;;;;;30.27;16.23;;;;;;;;;;5054909;28;20017;-72
2022/10/23 05:28:01;;;;;;;28.67;16.42;;;;;;;;;;5053499;28;20025;-74
2022/10/23 05:30:27;;;;;;;32.35;17.42;;;;;;;;;;5053122;28;20116;-74
2022/10/23 05:32:54;;;;;;;29.25;16.27;;;;;;;;;;5052845;28;20029;-73
2022/10/23 05:35:21;;;;;;;28.77;16.88;;;;;;;;;;5053281;28;20033;-73
2022/10/23 05:37:48;;;;;;;32.50;17.02;;;;;;;;;;5053337;28;20438;-74
2022/10/23 05:40:14;;;;;;;28.30;15.95;;;;;;;;;;5053539;28;20028;-74
2022/10/23 05:42:40;;;;;;;32.25;17.58;;;;;;;;;;5054244;28;20259;-74
2022/10/23 05:45:06;;;;;;;28.13;16.55;;;;;;;;;;5056404;28;20028;-74
2022/10/23 05:47:32;;;;;;;29.00;16.20;;;;;;;;;;5053405;28;20033;-73
2022/10/23 05:49:58;;;;;;;28.23;15.48;;;;;;;;;;5053157;28;20025;-73
2022/10/23 05:52:24;;;;;;;29.45;16.23;;;;;;;;;;5053081;28;20453;-73
2022/10/23 05:54:51;;;;;;;28.13;16.02;;;;;;;;;;5052741;28;20025;-72
2022/10/23 05:57:17;;;;;;;29.55;15.38;;;;;;;;;;5052561;28;20029;-73
2022/10/23 05:59:43;;;;;;;28.05;16.42;;;;;;;;;;5053859;28;20025;-73
2022/10/23 06:02:09;;;;;;;30.45;15.52;;;;;;;;;;5074021;28;20043;-72
2022/10/23 06:04:35;;;;;;;35.17;16.63;;;;;;;;;;5055319;28;20048;-73
2022/10/23 06:07:01;;;;;;;29.77;15.27;;;;;;;;;;5070903;28;20288;-73
2022/10/23 06:09:27;;;;;;;28.70;16.08;;;;;;;;;;5072769;28;20044;-73
2022/10/23 06:11:53;;;;;;;30.40;16.10;;;;;;;;;;5075767;28;20056;-73
2022/10/23 06:14:19;;;;;;;33.95;18.35;;;;;;;;;;5057073;28;20048;-72
2022/10/23 06:16:45;;;;;;;33.90;18.30;;;;;;;;;;5034881;28;20025;-72
2022/10/23 06:19:12;;;;;;;31.92;16.33;;;;;;;;;;5053392;28;20021;-73
2022/10/23 06:21:38;;;;;;;29.90;15.38;;;;;;;;;;5052630;28;20025;-72
2022/10/23 06:24:05;;;;;;;31.90;16.67;;;;;;;;;;5052816;28;20060;-73
2022/10/23 06:26:31;;;;;;;26.77;16.13;;;;;;;;;;5052931;28;20025;-74
2022/10/23 06:28:57;;;;;;;26.27;15.43;;;;;;;;;;5035052;28;20032;-74
2022/10/23 06:31:27;;;;;;;24.90;14.45;;;;;;;;;;5034695;28;20393;-73
2022/10/23 06:33:56;;;;;;;29.05;15.73;;;;;;;;;;5055260;28;20100;-73
2022/10/23 06:36:22;;;;;;;25.38;14.30;;;;;;;;;;5038000;28;20108;-73
2022/10/23 06:38:48;;;;;;;31.25;15.55;;;;;;;;;;5056043;28;20025;-73
2022/10/23 06:41:23;;;;;;;23.95;14.38;;;;;;;;;;5056087;28;20467;-72
2022/10/23 06:43:50;;;;;;;27.90;13.85;;;;;;;;;;5056321;28;20024;-73
2022/10/23 06:46:17;;;;;;;23.60;14.25;;;;;;;;;;5056746;28;20051;-72
2022/10/23 06:48:43;;;;;;;25.73;14.13;;;;;;;;;;5059010;28;20040;-74
2022/10/23 06:51:10;;;;;;;23.58;14.00;;;;;;;;;;5058493;28;20489;-74
2022/10/23 06:53:36;;;;;;;28.35;14.77;;;;;;;;;;5039542;28;20093;-73
2022/10/23 06:56:03;;;;;;;27.05;14.50;;;;;;;;;;5056249;28;20517;-72
2022/10/23 06:58:29;;;;;;;27.30;15.27;;;;;;;;;;5038739;28;20025;-74
2022/10/23 07:00:55;;;;;;;26.60;15.20;;;;;;;;;;5057946;28;20021;-73
2022/10/23 07:03:21;;;;;;;27.55;15.23;;;;;;;;;;5056911;28;20029;-74
2022/10/23 07:05:47;;;;;;;35.78;16.13;;;;;;;;;;5056855;28;20496;-72
2022/10/23 07:08:13;;;;;;;41.83;16.05;;;;;;;;;;5057164;28;20363;-73
2022/10/23 07:10:41;;;;;;;39.33;17.77;;;;;;;;;;5057461;28;20059;-75
2022/10/23 07:13:08;;;;;;;32.03;17.40;;;;;;;;;;5070846;28;20021;-75
2022/10/23 07:15:34;;;;;;;30.35;18.67;;;;;;;;;;5067970;28;20546;-75
2022/10/23 07:18:00;;;;;;;30.63;17.83;;;;;;;;;;5059938;28;20144;-74
2022/10/23 07:20:26;;;;;;;34.33;19.65;;;;;;;;;;5055607;28;20100;-75
2022/10/23 07:22:53;;;;;;;31.95;18.75;;;;;;;;;;5055404;28;20057;-74
2022/10/23 07:25:19;;;;;;;34.72;18.38;;;;;;;;;;5055895;28;20017;-71
2022/10/23 07:27:45;;;;;;;39.25;19.80;;;;;;;;;;5048664;28;20025;-74
2022/10/23 07:30:12;;;;;;;33.17;19.52;;;;;;;;;;5075910;28;20040;-74
2022/10/23 07:32:38;;;;;;;39.88;18.75;;;;;;;;;;5065339;28;20040;-74
2022/10/23 07:35:04;;;;;;;33.60;17.98;;;;;;;;;;5055420;28;20033;-75
2022/10/23 07:37:30;;;;;;;34.58;19.63;;;;;;;;;;5055445;28;20065;-75
2022/10/23 07:39:56;;;;;;;33.00;19.23;;;;;;;;;;5054925;28;20049;-75
2022/10/23 07:42:22;;;;;;;29.35;17.23;;;;;;;;;;5055547;28;20478;-74
2022/10/23 07:44:48;;;;;;;29.17;16.17;;;;;;;;;;5057153;28;20020;-75
2022/10/23 07:47:14;;;;;;;27.95;15.38;;;;;;;;;;5058034;28;20029;-73
2022/10/23 07:49:40;;;;;;;31.33;15.50;;;;;;;;;;5073040;28;20032;-73
2022/10/23 07:52:06;;;;;;;30.23;15.30;;;;;;;;;;5078851;28;20036;-72
2022/10/23 07:54:32;;;;;;;22.02;13.43;;;;;;;;;;5078526;28;20053;-71
2022/10/23 07:56:58;;;;;;;24.13;13.55;;;;;;;;;;5078349;28;20033;-71
2022/10/23 07:59:24;;;;;;;26.38;12.32;;;;;;;;;;5059880;28;20017;-73
2022/10/23 08:01:51;;;;;;;21.02;10.32;;;;;;;;;;5075567;28;20032;-74
2022/10/23 08:04:18;;;;;;;22.60;9.98;;;;;;;;;;5064012;28;20021;-74
2022/10/23 08:06:44;;;;;;;17.88;9.52;;;;;;;;;;5063577;28;20017;-73
2022/10/23 08:09:10;;;;;;;20.33;9.80;;;;;;;;;;5064356;28;20480;-76
2022/10/23 08:11:36;;;;;;;24.17;9.05;;;;;;;;;;5065686;28;20088;-73
2022/10/23 08:14:03;;;;;;;18.13;8.77;;;;;;;;;;5065086;28;20033;-76
2022/10/23 08:16:29;;;;;;;20.83;9.48;;;;;;;;;;5062218;28;20023;-75
2022/10/23 08:18:55;;;;;;;17.73;8.38;;;;;;;;;;5063523;28;20036;-73
2022/10/23 08:21:21;;;;;;;20.70;8.25;;;;;;;;;;5067026;28;20021;-74
2022/10/23 08:23:47;;;;;;;19.80;7.72;;;;;;;;;;5059605;28;20053;-75
2022/10/23 08:26:13;;;;;;;15.75;7.93;;;;;;;;;;5058576;28;20036;-70
2022/10/23 08:28:39;;;;;;;15.52;7.22;;;;;;;;;;5077413;28;20037;-71
2022/10/23 08:31:15;;;;;;;14.98;7.75;;;;;;;;;;5073583;28;20117;-72
2022/10/23 08:33:41;;;;;;;20.05;7.20;;;;;;;;;;5076086;28;20021;-71
2022/10/23 08:36:15;;;;;;;20.60;7.25;;;;;;;;;;5065337;28;20120;-75
2022/10/23 08:38:41;;;;;;;13.35;6.22;;;;;;;;;;5055324;28;20032;-74
2022/10/23 08:41:18;;;;;;;19.65;6.93;;;;;;;;;;5038235;28;20029;-74
2022/10/23 08:43:46;;;;;;;13.13;6.47;;;;;;;;;;5054249;28;20082;-74
2022/10/23 08:46:15;;;;;;;13.35;7.05;;;;;;;;;;5054592;28;20053;-74
2022/10/23 08:48:41;;;;;;;15.38;6.75;;;;;;;;;;5053915;28;20021;-74
2022/10/23 08:51:14;;;;;;;13.32;6.53;;;;;;;;;;5053418;28;20035;-75
2022/10/23 08:53:50;;;;;;;16.77;6.53;;;;;;;;;;5053667;28;20107;-76
2022/10/23 08:56:26;;;;;;;17.50;6.15;;;;;;;;;;5052699;28;20029;-75
2022/10/23 08:58:56;;;;;;;12.10;5.65;;;;;;;;;;5053638;28;20025;-75
2022/10/23 09:01:28;;;;;;;17.52;5.90;;;;;;;;;;5053582;28;20025;-75
2022/10/23 09:03:54;;;;;;;13.60;5.55;;;;;;;;;;5035678;28;20394;-74
2022/10/23 09:06:28;;;;;;;15.35;5.93;;;;;;;;;;5053283;28;20017;-76
2022/10/23 09:09:12;;;;;;;13.88;5.45;;;;;;;;;;5054221;28;20080;-74
2022/10/23 09:11:38;;;;;;;14.63;6.10;;;;;;;;;;5036286;28;20124;-77
2022/10/23 09:14:25;;;;;;;14.23;5.75;;;;;;;;;;5054058;28;20053;-76
2022/10/23 09:17:06;;;;;;;22.15;5.80;;;;;;;;;;5054446;28;20040;-75
2022/10/23 09:19:32;;;;;;;20.70;5.68;;;;;;;;;;5054469;28;20047;-76
2022/10/23 09:21:58;;;;;;;17.27;5.53;;;;;;;;;;5054021;28;20466;-75
2022/10/23 09:24:30;;;;;;;15.80;5.30;;;;;;;;;;5053739;28;20103;-75
2022/10/23 09:26:56;;;;;;;17.95;5.18;;;;;;;;;;5054279;28;20085;-76
2022/10/23 09:29:24;;;;;;;13.15;5.70;;;;;;;;;;5036356;28;20059;-75
2022/10/23 09:31:54;;;;;;;11.23;5.18;;;;;;;;;;5054740;28;20025;-74
2022/10/23 09:34:22;;;;;;;11.63;4.88;;;;;;;;;;5054728;28;20021;-75
2022/10/23 09:37:11;;;;;;;17.55;5.47;;;;;;;;;;5053809;28;20494;-76
2022/10/23 09:39:37;;;;;;;16.08;5.13;;;;;;;;;;5043547;28;20398;-76
2022/10/23 09:42:13;;;;;;;14.75;4.90;;;;;;;;;;5054126;28;20024;-75
2022/10/23 09:44:46;;;;;;;17.20;5.22;;;;;;;;;;5055155;28;20021;-75
2022/10/23 09:47:18;;;;;;;17.52;4.85;;;;;;;;;;5053779;28;20037;-75
2022/10/23 09:49:48;;;;;;;12.23;4.18;;;;;;;;;;5054027;28;20053;-76
2022/10/23 09:52:15;;;;;;;14.05;4.95;;;;;;;;;;5054895;28;20021;-75
2022/10/23 09:54:46;;;;;;;16.17;5.35;;;;;;;;;;5055238;28;20478;-75
2022/10/23 09:57:37;;;;;;;17.70;4.80;;;;;;;;;;5055672;28;20071;-76
2022/10/23 10:00:17;;;;;;;15.35;5.30;;;;;;;;;;5056501;28;20036;-76
2022/10/23 10:02:44;;;;;;;14.88;4.68;;;;;;;;;;5054375;28;20032;-74
2022/10/23 10:05:22;;;;;;;15.35;5.40;;;;;;;;;;5056267;28;20079;-75
2022/10/23 10:07:56;;;;;;;18.52;5.13;;;;;;;;;;5059302;28;20025;-75
2022/10/23 10:10:23;;;;;;;15.13;5.63;;;;;;;;;;5061499;28;20033;-77
2022/10/23 10:12:57;;;;;;;13.27;5.10;;;;;;;;;;5057892;28;20033;-75
2022/10/23 10:15:41;;;;;;;18.27;4.70;;;;;;;;;;5057634;28;20033;-76
2022/10/23 10:18:16;;;;;;;17.45;4.65;;;;;;;;;;5057433;28;20029;-75
2022/10/23 10:20:41;;;;;;;12.93;4.30;;;;;;;;;;5059747;28;20021;-75
2022/10/23 10:23:27;;;;;;;14.15;4.30;;;;;;;;;;5059977;28;20021;-76
2022/10/23 10:25:53;;;;;;;20.35;4.97;;;;;;;;;;5039515;28;20021;-76
2022/10/23 10:28:31;;;;;;;15.88;4.60;;;;;;;;;;5057009;28;20047;-77
2022/10/23 10:31:16;;;;;;;17.83;4.93;;;;;;;;;;5057992;28;20371;-77
2022/10/23 10:33:42;;;;;;;;;;;;;;;;;;5058103;28;20040;-74
2022/10/23 10:36:15;;;;;;;21.73;5.68;;;;;;;;;;5057131;28;19908;-76
2022/10/23 10:38:47;;;;;;;14.07;4.80;;;;;;;;;;5057611;28;20021;-76
2022/10/23 10:41:28;;;;;;;14.43;4.38;;;;;;;;;;5057035;28;20100;-75
2022/10/23 10:43:57;;;;;;;17.80;4.90;;;;;;;;;;5057567;28;20049;-75
2022/10/23 10:46:30;;;;;;;18.73;4.72;;;;;;;;;;5069228;28;20032;-74
2022/10/23 10:48:59;;;;;;;20.75;4.97;;;;;;;;;;5071687;28;20032;-74
2022/10/23 10:51:29;;;;;;;18.38;4.75;;;;;;;;;;5069562;28;20024;-75
2022/10/23 10:54:14;;;;;;;11.75;4.57;;;;;;;;;;5066323;28;20025;-76
2022/10/23 10:56:42;;;;;;;17.92;4.25;;;;;;;;;;5067408;28;20028;-77
2022/10/23 10:59:16;;;;;;;15.55;4.50;;;;;;;;;;5060042;28;20104;-75
2022/10/23 11:01:46;;;;;;;12.93;4.53;;;;;;;;;;5057233;28;20052;-74
2022/10/23 11:04:17;;;;;;;18.42;4.32;;;;;;;;;;5058089;28;20052;-75
2022/10/23 11:06:45;;;;;;;10.95;3.47;;;;;;;;;;5055892;28;20032;-74
2022/10/23 11:09:20;;;;;;;14.30;4.65;;;;;;;;;;5057449;28;20047;-77
2022/10/23 11:11:46;;;;;;;14.70;4.68;;;;;;;;;;5039924;28;20050;-75
2022/10/23 11:14:20;;;;;;;14.40;4.10;;;;;;;;;;5057395;28;20105;-77
2022/10/23 11:16:49;;;;;;;10.93;3.60;;;;;;;;;;5057352;28;20100;-76
2022/10/23 11:19:24;;;;;;;13.63;3.70;;;;;;;;;;5056598;28;20522;-77
2022/10/23 11:21:58;;;;;;;12.07;3.38;;;;;;;;;;5056250;28;20158;-75
2022/10/23 11:24:29;;;;;;;12.10;3.72;;;;;;;;;;5056112;28;20047;-74
2022/10/23 11:27:14;;;;;;;20.75;3.80;;;;;;;;;;5055651;28;20021;-77
2022/10/23 11:29:43;;;;;;;19.52;4.22;;;;;;;;;;5058320;28;20112;-77
2022/10/23 11:32:27;;;;;;;15.05;3.72;;;;;;;;;;5057126;28;20021;-76
2022/10/23 11:34:56;;;;;;;11.57;3.38;;;;;;;;;;5057263;28;20083;-76
2022/10/23 11:37:23;;;;;;;9.77;3.83;;;;;;;;;;5058617;28;20029;-76
2022/10/23 11:40:15;;;;;;;15.27;3.60;;;;;;;;;;5067821;28;20025;-72
2022/10/23 11:42:41;;;;;;;13.75;3.65;;;;;;;;;;5073700;28;20339;-73
2022/10/23 11:45:25;;;;;;;12.60;3.83;;;;;;;;;;5077647;28;20013;-75
2022/10/23 11:48:02;;;;;;;19.05;4.32;;;;;;;;;;5073047;28;20136;-76
2022/10/23 11:50:51;;;;;;;13.40;3.63;;;;;;;;;;5055763;28;20029;-76
2022/10/23 11:53:32;;;;;;;12.75;3.67;;;;;;;;;;5058281;28;20474;-76
2022/10/23 11:55:59;;;;;;;12.65;3.30;;;;;;;;;;5060217;28;20048;-73
2022/10/23 11:58:30;;;;;;;12.05;3.20;;;;;;;;;;5068082;28;20052;-73
2022/10/23 12:01:18;;;;;;;14.50;3.80;;;;;;;;;;5051363;28;20082;-75
2022/10/23 12:03:59;;;;;;;16.98;3.30;;;;;;;;;;5061703;28;20024;-75
2022/10/23 12:06:45;;;;;;;9.77;3.22;;;;;;;;;;5058609;28;20024;-76
2022/10/23 12:09:34;;;;;;;12.23;3.30;;;;;;;;;;5056761;28;20033;-76
2022/10/23 12:12:02;;;;;;;10.52;2.85;;;;;;;;;;5056070;28;20444;-74
2022/10/23 12:14:28;;;;;;;11.35;3.30;;;;;;;;;;5038044;28;20036;-74
2022/10/23 12:16:55;;;;;;;15.32;3.40;;;;;;;;;;5056032;28;20036;-75
2022/10/23 12:19:22;;;;;;;12.85;3.10;;;;;;;;;;5038338;28;20092;-75
2022/10/23 12:21:51;;;;;;;12.20;3.33;;;;;;;;;;5056316;28;20173;-76
2022/10/23 12:24:38;;;;;;;12.48;3.38;;;;;;;;;;5057574;28;20017;-74
2022/10/23 12:27:18;;;;;;;9.98;2.58;;;;;;;;;;5039583;28;20020;-74
2022/10/23 12:30:02;;;;;;;11.07;3.45;;;;;;;;;;5057564;28;20029;-75
2022/10/23 12:32:37;;;;;;;13.25;3.90;;;;;;;;;;5057601;28;20040;-75
2022/10/23 12:35:22;;;;;;;13.93;3.63;;;;;;;;;;5038705;28;20024;-75
2022/10/23 12:37:53;;;;;;;13.88;3.13;;;;;;;;;;5057230;28;20032;-75
2022/10/23 12:40:19;;;;;;;13.25;3.50;;;;;;;;;;5055770;28;20021;-74
2022/10/23 12:42:53;;;;;;;17.23;3.03;;;;;;;;;;5055015;28;20048;-76
2022/10/23 12:45:22;;;;;;;16.60;3.95;;;;;;;;;;5036384;28;20021;-76
2022/10/23 12:47:49;;;;;;;13.82;3.85;;;;;;;;;;5054231;28;20021;-76
2022/10/23 12:50:23;;;;;;;11.02;2.78;;;;;;;;;;5036665;28;20029;-74
2022/10/23 12:52:54;;;;;;;16.48;3.20;;;;;;;;;;5054557;28;20072;-76
2022/10/23 12:55:20;;;;;;;19.40;4.18;;;;;;;;;;5054596;28;20099;-76
2022/10/23 12:57:46;;;;;;;10.77;3.53;;;;;;;;;;5054624;28;20029;-74
2022/10/23 13:00:17;;;;;;;19.13;3.72;;;;;;;;;;5054640;28;20025;-76
2022/10/23 13:02:43;;;;;;;16.92;4.28;;;;;;;;;;5038252;28;20375;-76
2022/10/23 13:05:12;;;;;;;14.77;3.75;;;;;;;;;;5069802;28;20017;-74
2022/10/23 13:07:42;;;;;;;18.70;4.22;;;;;;;;;;5067165;28;20083;-74
2022/10/23 13:10:13;;;;;;;11.57;3.70;;;;;;;;;;5087639;22;20489;-76
2022/10/23 13:12:39;;;;;;;12.30;4.18;;;;;;;;;;5071695;28;20033;-76
2022/10/23 13:15:05;;;;;;;21.55;3.95;;;;;;;;;;5072413;28;20042;-75
2022/10/23 13:17:39;;;;;;;10.80;3.70;;;;;;;;;;5071926;28;20477;-76
2022/10/23 13:20:27;;;;;;;13.05;3.92;;;;;;;;;;5072539;28;20025;-76
2022/10/23 13:22:58;;;;;;;12.50;3.88;;;;;;;;;;5072214;28;20041;-75
2022/10/23 13:25:32;;;;;;;9.50;3.67;;;;;;;;;;5073185;28;20063;-75
2022/10/23 13:28:07;;;;;;;12.80;3.63;;;;;;;;;;5073304;28;20033;-76
2022/10/23 13:30:47;;;;;;;14.02;3.78;;;;;;;;;;5073082;28;20350;-74
2022/10/23 13:33:22;;;;;;;17.23;3.55;;;;;;;;;;5072952;28;20469;-74
2022/10/23 13:35:58;;;;;;;15.02;3.60;;;;;;;;;;5074949;28;20108;-75
2022/10/23 13:38:28;;;;;;;13.50;3.90;;;;;;;;;;5078082;28;20037;-76
2022/10/23 13:40:56;;;;;;;12.82;3.95;;;;;;;;;;5072293;28;20028;-75
2022/10/23 13:43:23;;;;;;;16.95;5.20;;;;;;;;;;5076036;28;20051;-78
2022/10/23 13:45:49;;;;;;;15.30;3.67;;;;;;;;;;5077330;28;20059;-75
2022/10/23 13:48:15;;;;;;;13.65;3.30;;;;;;;;;;5078316;28;20025;-75
2022/10/23 13:50:41;;;;;;;17.35;3.75;;;;;;;;;;5076587;28;20546;-75
2022/10/23 13:53:11;;;;;;;14.93;3.97;;;;;;;;;;5076358;28;20099;-74
2022/10/23 13:55:39;;;;;;;14.77;3.58;;;;;;;;;;5076239;28;20056;-75
2022/10/23 13:58:11;;;;;;;13.55;3.38;;;;;;;;;;5078949;28;20154;-75
2022/10/23 14:00:37;;;;;;;14.77;3.70;;;;;;;;;;5077976;28;20017;-74
2022/10/23 14:03:04;;;;;;;15.10;3.40;;;;;;;;;;5078665;28;20028;-74
2022/10/23 14:05:30;;;;;;;16.95;3.67;;;;;;;;;;5077768;28;20031;-76
2022/10/23 14:07:56;;;;;;;16.05;4.10;;;;;;;;;;5077012;28;20477;-76
2022/10/23 14:10:22;;;;;;;15.48;3.63;;;;;;;;;;5076025;28;20108;-75
2022/10/23 14:12:53;;;;;;;15.35;3.97;;;;;;;;;;5074746;28;20044;-74
2022/10/23 14:15:20;;;;;;;10.10;3.30;;;;;;;;;;5080505;28;20021;-76
2022/10/23 14:17:46;;;;;;;16.50;3.22;;;;;;;;;;5082388;28;20027;-75
2022/10/23 14:20:12;;;;;;;12.10;3.20;;;;;;;;;;5081379;28;20024;-75
2022/10/23 14:22:38;;;;;;;16.50;4.15;;;;;;;;;;5078984;28;20069;-75
2022/10/23 14:25:04;;;;;;;12.88;3.20;;;;;;;;;;5078914;28;20080;-74
2022/10/23 14:27:30;;;;;;;19.58;3.30;;;;;;;;;;5097937;28;20028;-74
2022/10/23 14:29:58;;;;;;;15.15;3.38;;;;;;;;;;5098671;28;20012;-75
2022/10/23 14:32:24;;;;;;;10.02;2.97;;;;;;;;;;5099499;28;20020;-75
2022/10/23 14:34:51;;;;;;;14.80;3.85;;;;;;;;;;5090812;28;20056;-75
2022/10/23 14:37:18;;;;;;;14.60;3.22;;;;;;;;;;5076387;28;20388;-76